sensor_id;sensor_type;location;lat;lon;timestamp;P1;durP1;ratioP1;P2;durP2;ratioP2
3070;SDS011;1546;47.208;9.038;2023-02-01T00:00:10;10.57;;;5.75;;
3070;SDS011;1546;47.208;9.038;2023-02-01T00:02:39;9.00;;;4.60;;
3070;SDS011;1546;47.208;9.038;2023-02-01T00:05:07;10.48;;;6.10;;
3070;SDS011;1546;47.208;9.038;2023-02-01T00:07:34;10.63;;;4.80;;
3070;SDS011;1546;47.208;9.038;2023-02-01T00:10:02;14.00;;;5.78;;
3070;SDS011;1546;47.208;9.038;2023-02-01T00:12:29;10.88;;;5.13;;
3070;SDS011;1546;47.208;9.038;2023-02-01T00:14:56;10.10;;;4.88;;
3070;SDS011;1546;47.208;9.038;2023-02-01T00:17:23;10.38;;;4.97;;
3070;SDS011;1546;47.208;9.038;2023-02-01T00:19:51;9.15;;;6.40;;
3070;SDS011;1546;47.208;9.038;2023-02-01T00:22:18;9.70;;;4.60;;
3070;SDS011;1546;47.208;9.038;2023-02-01T00:24:45;11.07;;;5.43;;
3070;SDS011;1546;47.208;9.038;2023-02-01T00:27:12;19.70;;;6.40;;
3070;SDS011;1546;47.208;9.038;2023-02-01T00:29:42;9.88;;;5.15;;
3070;SDS011;1546;47.208;9.038;2023-02-01T00:32:10;11.30;;;6.10;;
3070;SDS011;1546;47.208;9.038;2023-02-01T00:34:37;8.65;;;4.70;;
3070;SDS011;1546;47.208;9.038;2023-02-01T00:37:05;9.68;;;5.32;;
3070;SDS011;1546;47.208;9.038;2023-02-01T00:39:32;11.95;;;5.15;;
3070;SDS011;1546;47.208;9.038;2023-02-01T00:42:00;7.63;;;3.85;;
3070;SDS011;1546;47.208;9.038;2023-02-01T00:44:27;14.75;;;5.80;;
3070;SDS011;1546;47.208;9.038;2023-02-01T00:46:58;8.70;;;4.30;;
3070;SDS011;1546;47.208;9.038;2023-02-01T00:49:25;9.75;;;4.57;;
3070;SDS011;1546;47.208;9.038;2023-02-01T00:51:52;9.82;;;4.75;;
3070;SDS011;1546;47.208;9.038;2023-02-01T00:54:20;13.27;;;5.78;;
3070;SDS011;1546;47.208;9.038;2023-02-01T00:56:47;9.65;;;5.15;;
3070;SDS011;1546;47.208;9.038;2023-02-01T00:59:14;9.50;;;3.60;;
3070;SDS011;1546;47.208;9.038;2023-02-01T01:01:41;9.38;;;4.32;;
3070;SDS011;1546;47.208;9.038;2023-02-01T01:04:08;11.00;;;6.95;;
3070;SDS011;1546;47.208;9.038;2023-02-01T01:06:35;13.18;;;7.60;;
3070;SDS011;1546;47.208;9.038;2023-02-01T01:09:02;11.13;;;6.15;;
3070;SDS011;1546;47.208;9.038;2023-02-01T01:11:33;12.52;;;7.72;;
3070;SDS011;1546;47.208;9.038;2023-02-01T01:14:01;12.73;;;6.45;;
3070;SDS011;1546;47.208;9.038;2023-02-01T01:16:29;10.95;;;6.30;;
3070;SDS011;1546;47.208;9.038;2023-02-01T01:18:57;12.55;;;6.25;;
3070;SDS011;1546;47.208;9.038;2023-02-01T01:21:24;13.25;;;6.55;;
3070;SDS011;1546;47.208;9.038;2023-02-01T01:23:51;11.15;;;6.38;;
3070;SDS011;1546;47.208;9.038;2023-02-01T01:26:19;14.25;;;6.55;;
3070;SDS011;1546;47.208;9.038;2023-02-01T01:28:48;11.00;;;4.50;;
3070;SDS011;1546;47.208;9.038;2023-02-01T01:31:17;9.77;;;4.22;;
3070;SDS011;1546;47.208;9.038;2023-02-01T01:33:47;11.38;;;3.53;;
3070;SDS011;1546;47.208;9.038;2023-02-01T01:36:15;9.55;;;4.18;;
3070;SDS011;1546;47.208;9.038;2023-02-01T01:38:42;8.68;;;3.72;;
3070;SDS011;1546;47.208;9.038;2023-02-01T01:41:11;8.80;;;3.80;;
3070;SDS011;1546;47.208;9.038;2023-02-01T01:43:46;9.75;;;4.15;;
3070;SDS011;1546;47.208;9.038;2023-02-01T01:46:17;16.38;;;4.90;;
3070;SDS011;1546;47.208;9.038;2023-02-01T01:48:45;8.43;;;3.55;;
3070;SDS011;1546;47.208;9.038;2023-02-01T01:51:14;7.55;;;3.88;;
3070;SDS011;1546;47.208;9.038;2023-02-01T01:53:45;6.68;;;3.80;;
3070;SDS011;1546;47.208;9.038;2023-02-01T01:56:16;10.13;;;4.07;;
3070;SDS011;1546;47.208;9.038;2023-02-01T01:58:43;7.43;;;3.05;;
3070;SDS011;1546;47.208;9.038;2023-02-01T02:01:11;8.15;;;3.20;;
3070;SDS011;1546;47.208;9.038;2023-02-01T02:03:39;10.95;;;3.30;;
3070;SDS011;1546;47.208;9.038;2023-02-01T02:06:10;7.97;;;3.35;;
3070;SDS011;1546;47.208;9.038;2023-02-01T02:08:41;8.80;;;3.17;;
3070;SDS011;1546;47.208;9.038;2023-02-01T02:11:08;6.50;;;3.00;;
3070;SDS011;1546;47.208;9.038;2023-02-01T02:13:38;7.40;;;2.80;;
3070;SDS011;1546;47.208;9.038;2023-02-01T02:16:14;6.65;;;2.92;;
3070;SDS011;1546;47.208;9.038;2023-02-01T02:18:50;8.35;;;3.33;;
3070;SDS011;1546;47.208;9.038;2023-02-01T02:21:32;7.22;;;2.90;;
3070;SDS011;1546;47.208;9.038;2023-02-01T02:27:11;7.45;;;3.40;;
3070;SDS011;1546;47.208;9.038;2023-02-01T02:36:29;6.85;;;2.67;;
3070;SDS011;1546;47.208;9.038;2023-02-01T02:39:03;5.38;;;2.45;;
3070;SDS011;1546;47.208;9.038;2023-02-01T02:41:36;6.75;;;2.38;;
3070;SDS011;1546;47.208;9.038;2023-02-01T02:44:32;5.97;;;1.65;;
3070;SDS011;1546;47.208;9.038;2023-02-01T02:47:21;8.30;;;3.22;;
3070;SDS011;1546;47.208;9.038;2023-02-01T02:49:54;5.50;;;1.85;;
3070;SDS011;1546;47.208;9.038;2023-02-01T02:52:48;6.75;;;2.28;;
3070;SDS011;1546;47.208;9.038;2023-02-01T02:55:39;6.55;;;2.85;;
3070;SDS011;1546;47.208;9.038;2023-02-01T02:58:07;7.88;;;4.18;;
3070;SDS011;1546;47.208;9.038;2023-02-01T03:00:54;11.48;;;4.07;;
3070;SDS011;1546;47.208;9.038;2023-02-01T03:03:40;13.63;;;4.80;;
3070;SDS011;1546;47.208;9.038;2023-02-01T03:06:24;10.80;;;4.68;;
3070;SDS011;1546;47.208;9.038;2023-02-01T03:08:54;10.15;;;4.35;;
3070;SDS011;1546;47.208;9.038;2023-02-01T03:11:24;10.27;;;5.35;;
3070;SDS011;1546;47.208;9.038;2023-02-01T03:14:13;12.90;;;6.15;;
3070;SDS011;1546;47.208;9.038;2023-02-01T03:16:44;12.65;;;5.85;;
3070;SDS011;1546;47.208;9.038;2023-02-01T03:19:17;9.27;;;5.50;;
3070;SDS011;1546;47.208;9.038;2023-02-01T03:21:48;10.50;;;5.10;;
3070;SDS011;1546;47.208;9.038;2023-02-01T03:24:21;8.93;;;4.60;;
3070;SDS011;1546;47.208;9.038;2023-02-01T03:27:00;5.30;;;2.10;;
3070;SDS011;1546;47.208;9.038;2023-02-01T03:29:30;4.70;;;1.95;;
3070;SDS011;1546;47.208;9.038;2023-02-01T03:32:03;4.65;;;2.00;;
3070;SDS011;1546;47.208;9.038;2023-02-01T03:34:30;7.07;;;2.70;;
3070;SDS011;1546;47.208;9.038;2023-02-01T03:36:58;6.97;;;2.35;;
3070;SDS011;1546;47.208;9.038;2023-02-01T03:39:30;5.82;;;2.70;;
3070;SDS011;1546;47.208;9.038;2023-02-01T03:42:01;8.30;;;2.30;;
3070;SDS011;1546;47.208;9.038;2023-02-01T03:44:32;6.85;;;2.80;;
3070;SDS011;1546;47.208;9.038;2023-02-01T03:47:03;6.88;;;3.03;;
3070;SDS011;1546;47.208;9.038;2023-02-01T03:49:35;6.15;;;2.28;;
3070;SDS011;1546;47.208;9.038;2023-02-01T03:52:05;7.35;;;3.22;;
3070;SDS011;1546;47.208;9.038;2023-02-01T03:54:37;6.28;;;2.38;;
3070;SDS011;1546;47.208;9.038;2023-02-01T03:57:06;8.20;;;4.50;;
3070;SDS011;1546;47.208;9.038;2023-02-01T03:59:38;7.88;;;3.40;;
3070;SDS011;1546;47.208;9.038;2023-02-01T04:02:06;8.02;;;4.28;;
3070;SDS011;1546;47.208;9.038;2023-02-01T04:04:33;10.25;;;3.85;;
3070;SDS011;1546;47.208;9.038;2023-02-01T04:07:00;6.15;;;3.58;;
3070;SDS011;1546;47.208;9.038;2023-02-01T04:09:27;10.88;;;4.00;;
3070;SDS011;1546;47.208;9.038;2023-02-01T04:11:55;10.45;;;5.53;;
3070;SDS011;1546;47.208;9.038;2023-02-01T04:14:22;9.18;;;4.55;;
3070;SDS011;1546;47.208;9.038;2023-02-01T04:16:49;7.90;;;4.10;;
3070;SDS011;1546;47.208;9.038;2023-02-01T04:19:16;7.25;;;4.35;;
3070;SDS011;1546;47.208;9.038;2023-02-01T04:21:42;9.77;;;4.32;;
3070;SDS011;1546;47.208;9.038;2023-02-01T04:24:10;9.88;;;4.68;;
3070;SDS011;1546;47.208;9.038;2023-02-01T04:26:37;11.07;;;5.15;;
3070;SDS011;1546;47.208;9.038;2023-02-01T04:29:05;9.15;;;4.95;;
3070;SDS011;1546;47.208;9.038;2023-02-01T04:31:32;13.68;;;6.05;;
3070;SDS011;1546;47.208;9.038;2023-02-01T04:34:00;12.00;;;4.65;;
3070;SDS011;1546;47.208;9.038;2023-02-01T04:36:27;11.93;;;4.95;;
3070;SDS011;1546;47.208;9.038;2023-02-01T04:38:54;9.80;;;5.72;;
3070;SDS011;1546;47.208;9.038;2023-02-01T04:41:21;10.43;;;3.63;;
3070;SDS011;1546;47.208;9.038;2023-02-01T04:43:48;7.55;;;3.50;;
3070;SDS011;1546;47.208;9.038;2023-02-01T04:46:17;12.23;;;5.40;;
3070;SDS011;1546;47.208;9.038;2023-02-01T04:48:44;11.13;;;6.18;;
3070;SDS011;1546;47.208;9.038;2023-02-01T04:51:10;11.23;;;4.78;;
3070;SDS011;1546;47.208;9.038;2023-02-01T04:53:38;9.05;;;4.68;;
3070;SDS011;1546;47.208;9.038;2023-02-01T04:56:05;9.38;;;4.63;;
3070;SDS011;1546;47.208;9.038;2023-02-01T04:58:33;10.63;;;4.65;;
3070;SDS011;1546;47.208;9.038;2023-02-01T05:01:01;10.18;;;5.53;;
3070;SDS011;1546;47.208;9.038;2023-02-01T05:03:30;13.45;;;6.88;;
3070;SDS011;1546;47.208;9.038;2023-02-01T05:05:57;11.20;;;5.53;;
3070;SDS011;1546;47.208;9.038;2023-02-01T05:08:25;9.95;;;5.70;;
3070;SDS011;1546;47.208;9.038;2023-02-01T05:10:53;11.65;;;4.72;;
3070;SDS011;1546;47.208;9.038;2023-02-01T05:13:20;14.63;;;6.82;;
3070;SDS011;1546;47.208;9.038;2023-02-01T05:16:01;11.27;;;5.20;;
3070;SDS011;1546;47.208;9.038;2023-02-01T05:18:28;10.00;;;5.80;;
3070;SDS011;1546;47.208;9.038;2023-02-01T05:20:56;12.07;;;5.20;;
3070;SDS011;1546;47.208;9.038;2023-02-01T05:23:23;10.75;;;5.13;;
3070;SDS011;1546;47.208;9.038;2023-02-01T05:25:49;11.43;;;4.95;;
3070;SDS011;1546;47.208;9.038;2023-02-01T05:28:16;8.75;;;4.43;;
3070;SDS011;1546;47.208;9.038;2023-02-01T05:30:43;10.02;;;4.75;;
3070;SDS011;1546;47.208;9.038;2023-02-01T05:33:10;10.57;;;5.53;;
3070;SDS011;1546;47.208;9.038;2023-02-01T05:35:36;9.52;;;4.80;;
3070;SDS011;1546;47.208;9.038;2023-02-01T05:38:05;11.60;;;6.53;;
3070;SDS011;1546;47.208;9.038;2023-02-01T05:40:31;10.65;;;5.47;;
3070;SDS011;1546;47.208;9.038;2023-02-01T05:42:58;11.23;;;4.43;;
3070;SDS011;1546;47.208;9.038;2023-02-01T05:45:25;9.23;;;4.53;;
3070;SDS011;1546;47.208;9.038;2023-02-01T05:47:52;9.43;;;4.93;;
3070;SDS011;1546;47.208;9.038;2023-02-01T05:50:19;9.00;;;3.80;;
3070;SDS011;1546;47.208;9.038;2023-02-01T05:52:45;10.57;;;3.42;;
3070;SDS011;1546;47.208;9.038;2023-02-01T05:55:14;6.05;;;2.70;;
3070;SDS011;1546;47.208;9.038;2023-02-01T05:57:41;8.10;;;3.05;;
3070;SDS011;1546;47.208;9.038;2023-02-01T06:00:08;7.45;;;3.63;;
3070;SDS011;1546;47.208;9.038;2023-02-01T06:02:36;6.28;;;2.70;;
3070;SDS011;1546;47.208;9.038;2023-02-01T06:05:03;6.78;;;2.80;;
3070;SDS011;1546;47.208;9.038;2023-02-01T06:07:30;6.43;;;3.25;;
3070;SDS011;1546;47.208;9.038;2023-02-01T06:09:58;8.45;;;3.35;;
3070;SDS011;1546;47.208;9.038;2023-02-01T06:12:26;7.63;;;3.20;;
3070;SDS011;1546;47.208;9.038;2023-02-01T06:14:53;8.48;;;2.95;;
3070;SDS011;1546;47.208;9.038;2023-02-01T06:17:20;7.05;;;3.35;;
3070;SDS011;1546;47.208;9.038;2023-02-01T06:19:46;9.55;;;4.13;;
3070;SDS011;1546;47.208;9.038;2023-02-01T06:22:13;9.77;;;4.40;;
3070;SDS011;1546;47.208;9.038;2023-02-01T06:24:40;7.47;;;3.20;;
3070;SDS011;1546;47.208;9.038;2023-02-01T06:27:07;8.40;;;3.67;;
3070;SDS011;1546;47.208;9.038;2023-02-01T06:29:36;8.43;;;3.80;;
3070;SDS011;1546;47.208;9.038;2023-02-01T06:32:03;8.57;;;3.58;;
3070;SDS011;1546;47.208;9.038;2023-02-01T06:34:30;10.43;;;5.30;;
3070;SDS011;1546;47.208;9.038;2023-02-01T06:36:57;8.77;;;3.70;;
3070;SDS011;1546;47.208;9.038;2023-02-01T06:39:24;10.50;;;3.60;;
3070;SDS011;1546;47.208;9.038;2023-02-01T06:41:52;7.47;;;3.60;;
3070;SDS011;1546;47.208;9.038;2023-02-01T06:44:19;7.65;;;4.22;;
3070;SDS011;1546;47.208;9.038;2023-02-01T06:46:47;9.95;;;3.25;;
3070;SDS011;1546;47.208;9.038;2023-02-01T06:49:14;8.07;;;4.05;;
3070;SDS011;1546;47.208;9.038;2023-02-01T06:51:41;15.13;;;7.22;;
3070;SDS011;1546;47.208;9.038;2023-02-01T06:54:07;11.90;;;6.20;;
3070;SDS011;1546;47.208;9.038;2023-02-01T06:56:35;15.55;;;6.50;;
3070;SDS011;1546;47.208;9.038;2023-02-01T06:59:03;12.07;;;5.28;;
3070;SDS011;1546;47.208;9.038;2023-02-01T07:01:30;16.67;;;6.95;;
3070;SDS011;1546;47.208;9.038;2023-02-01T07:03:58;16.15;;;7.50;;
3070;SDS011;1546;47.208;9.038;2023-02-01T07:06:25;15.77;;;7.85;;
3070;SDS011;1546;47.208;9.038;2023-02-01T07:08:52;15.48;;;7.38;;
3070;SDS011;1546;47.208;9.038;2023-02-01T07:11:21;16.95;;;6.72;;
3070;SDS011;1546;47.208;9.038;2023-02-01T07:13:48;13.95;;;8.18;;
3070;SDS011;1546;47.208;9.038;2023-02-01T07:16:16;13.35;;;6.43;;
3070;SDS011;1546;47.208;9.038;2023-02-01T07:18:44;12.32;;;7.53;;
3070;SDS011;1546;47.208;9.038;2023-02-01T07:21:12;12.93;;;7.40;;
3070;SDS011;1546;47.208;9.038;2023-02-01T07:23:39;10.65;;;6.50;;
3070;SDS011;1546;47.208;9.038;2023-02-01T07:26:06;13.50;;;6.90;;
3070;SDS011;1546;47.208;9.038;2023-02-01T07:28:34;14.38;;;7.70;;
3070;SDS011;1546;47.208;9.038;2023-02-01T07:31:03;16.02;;;8.48;;
3070;SDS011;1546;47.208;9.038;2023-02-01T07:33:30;12.95;;;7.05;;
3070;SDS011;1546;47.208;9.038;2023-02-01T07:35:57;11.45;;;6.30;;
3070;SDS011;1546;47.208;9.038;2023-02-01T07:38:27;13.75;;;6.57;;
3070;SDS011;1546;47.208;9.038;2023-02-01T07:40:56;11.20;;;6.95;;
3070;SDS011;1546;47.208;9.038;2023-02-01T07:43:24;13.60;;;6.90;;
3070;SDS011;1546;47.208;9.038;2023-02-01T07:45:51;16.60;;;7.78;;
3070;SDS011;1546;47.208;9.038;2023-02-01T07:48:19;14.63;;;7.82;;
3070;SDS011;1546;47.208;9.038;2023-02-01T07:50:46;12.40;;;7.53;;
3070;SDS011;1546;47.208;9.038;2023-02-01T07:53:13;17.70;;;9.05;;
3070;SDS011;1546;47.208;9.038;2023-02-01T07:55:42;15.43;;;6.88;;
3070;SDS011;1546;47.208;9.038;2023-02-01T07:58:08;14.43;;;9.40;;
3070;SDS011;1546;47.208;9.038;2023-02-01T08:00:35;24.60;;;12.07;;
3070;SDS011;1546;47.208;9.038;2023-02-01T08:03:19;18.25;;;8.40;;
3070;SDS011;1546;47.208;9.038;2023-02-01T08:05:46;23.17;;;10.27;;
3070;SDS011;1546;47.208;9.038;2023-02-01T08:08:13;15.15;;;8.23;;
3070;SDS011;1546;47.208;9.038;2023-02-01T08:10:41;18.02;;;8.43;;
3070;SDS011;1546;47.208;9.038;2023-02-01T08:13:08;15.75;;;8.88;;
3070;SDS011;1546;47.208;9.038;2023-02-01T08:15:35;13.48;;;6.88;;
3070;SDS011;1546;47.208;9.038;2023-02-01T08:18:01;15.90;;;7.15;;
3070;SDS011;1546;47.208;9.038;2023-02-01T08:20:29;17.55;;;8.23;;
3070;SDS011;1546;47.208;9.038;2023-02-01T08:22:56;12.65;;;6.63;;
3070;SDS011;1546;47.208;9.038;2023-02-01T08:25:23;11.20;;;6.63;;
3070;SDS011;1546;47.208;9.038;2023-02-01T08:27:52;13.75;;;6.40;;
3070;SDS011;1546;47.208;9.038;2023-02-01T08:30:19;14.43;;;8.20;;
3070;SDS011;1546;47.208;9.038;2023-02-01T08:32:47;13.02;;;6.43;;
3070;SDS011;1546;47.208;9.038;2023-02-01T08:35:14;19.08;;;6.82;;
3070;SDS011;1546;47.208;9.038;2023-02-01T08:37:41;16.63;;;9.23;;
3070;SDS011;1546;47.208;9.038;2023-02-01T08:40:08;11.50;;;4.05;;
3070;SDS011;1546;47.208;9.038;2023-02-01T08:42:36;8.95;;;4.95;;
3070;SDS011;1546;47.208;9.038;2023-02-01T08:45:20;12.82;;;7.63;;
3070;SDS011;1546;47.208;9.038;2023-02-01T08:47:49;12.10;;;6.25;;
3070;SDS011;1546;47.208;9.038;2023-02-01T08:50:17;17.08;;;8.13;;
3070;SDS011;1546;47.208;9.038;2023-02-01T08:52:44;16.00;;;8.90;;
3070;SDS011;1546;47.208;9.038;2023-02-01T08:55:11;20.05;;;10.88;;
3070;SDS011;1546;47.208;9.038;2023-02-01T08:57:38;16.95;;;8.07;;
3070;SDS011;1546;47.208;9.038;2023-02-01T09:00:07;15.68;;;8.00;;
3070;SDS011;1546;47.208;9.038;2023-02-01T09:02:39;12.90;;;6.60;;
3070;SDS011;1546;47.208;9.038;2023-02-01T09:05:06;13.75;;;7.40;;
3070;SDS011;1546;47.208;9.038;2023-02-01T09:07:33;12.50;;;6.82;;
3070;SDS011;1546;47.208;9.038;2023-02-01T09:10:00;13.35;;;7.22;;
3070;SDS011;1546;47.208;9.038;2023-02-01T09:12:28;12.70;;;6.95;;
3070;SDS011;1546;47.208;9.038;2023-02-01T09:14:55;17.90;;;7.50;;
3070;SDS011;1546;47.208;9.038;2023-02-01T09:17:24;12.10;;;6.25;;
3070;SDS011;1546;47.208;9.038;2023-02-01T09:19:52;12.60;;;6.68;;
3070;SDS011;1546;47.208;9.038;2023-02-01T09:22:19;7.03;;;3.25;;
3070;SDS011;1546;47.208;9.038;2023-02-01T09:24:46;12.45;;;6.88;;
3070;SDS011;1546;47.208;9.038;2023-02-01T09:27:13;7.75;;;3.92;;
3070;SDS011;1546;47.208;9.038;2023-02-01T09:29:40;6.80;;;3.83;;
3070;SDS011;1546;47.208;9.038;2023-02-01T09:32:06;11.77;;;3.40;;
3070;SDS011;1546;47.208;9.038;2023-02-01T09:34:33;6.97;;;3.50;;
3070;SDS011;1546;47.208;9.038;2023-02-01T09:37:02;11.98;;;6.05;;
3070;SDS011;1546;47.208;9.038;2023-02-01T09:39:29;12.35;;;5.20;;
3070;SDS011;1546;47.208;9.038;2023-02-01T09:41:58;8.05;;;4.45;;
3070;SDS011;1546;47.208;9.038;2023-02-01T09:44:42;12.02;;;6.05;;
3070;SDS011;1546;47.208;9.038;2023-02-01T09:47:16;14.50;;;7.82;;
3070;SDS011;1546;47.208;9.038;2023-02-01T09:49:47;14.32;;;7.28;;
3070;SDS011;1546;47.208;9.038;2023-02-01T09:52:22;12.25;;;5.45;;
3070;SDS011;1546;47.208;9.038;2023-02-01T09:54:54;11.52;;;5.53;;
3070;SDS011;1546;47.208;9.038;2023-02-01T09:57:27;9.80;;;5.80;;
3070;SDS011;1546;47.208;9.038;2023-02-01T09:59:59;10.77;;;5.20;;
3070;SDS011;1546;47.208;9.038;2023-02-01T10:02:31;7.15;;;2.92;;
3070;SDS011;1546;47.208;9.038;2023-02-01T10:05:05;8.68;;;2.90;;
3070;SDS011;1546;47.208;9.038;2023-02-01T10:07:40;7.93;;;3.85;;
3070;SDS011;1546;47.208;9.038;2023-02-01T10:10:18;6.43;;;3.80;;
3070;SDS011;1546;47.208;9.038;2023-02-01T10:12:58;7.05;;;3.45;;
3070;SDS011;1546;47.208;9.038;2023-02-01T10:15:43;8.55;;;3.53;;
3070;SDS011;1546;47.208;9.038;2023-02-01T10:18:24;5.57;;;2.80;;
3070;SDS011;1546;47.208;9.038;2023-02-01T10:21:05;5.60;;;2.60;;
3070;SDS011;1546;47.208;9.038;2023-02-01T10:23:56;6.47;;;2.97;;
3070;SDS011;1546;47.208;9.038;2023-02-01T10:26:33;6.10;;;2.40;;
3070;SDS011;1546;47.208;9.038;2023-02-01T10:29:04;6.53;;;2.97;;
3070;SDS011;1546;47.208;9.038;2023-02-01T10:31:41;5.45;;;2.60;;
3070;SDS011;1546;47.208;9.038;2023-02-01T10:34:11;6.72;;;2.40;;
3070;SDS011;1546;47.208;9.038;2023-02-01T10:36:47;6.32;;;3.10;;
3070;SDS011;1546;47.208;9.038;2023-02-01T10:39:20;11.50;;;3.75;;
3070;SDS011;1546;47.208;9.038;2023-02-01T10:41:48;7.00;;;3.42;;
3070;SDS011;1546;47.208;9.038;2023-02-01T10:44:16;6.95;;;2.92;;
3070;SDS011;1546;47.208;9.038;2023-02-01T10:46:45;6.20;;;2.90;;
3070;SDS011;1546;47.208;9.038;2023-02-01T10:49:13;7.35;;;3.10;;
3070;SDS011;1546;47.208;9.038;2023-02-01T10:51:45;5.38;;;2.50;;
3070;SDS011;1546;47.208;9.038;2023-02-01T10:54:17;7.35;;;2.10;;
3070;SDS011;1546;47.208;9.038;2023-02-01T10:56:47;5.90;;;2.28;;
3070;SDS011;1546;47.208;9.038;2023-02-01T10:59:18;5.70;;;3.17;;
3070;SDS011;1546;47.208;9.038;2023-02-01T11:01:47;6.88;;;2.75;;
3070;SDS011;1546;47.208;9.038;2023-02-01T11:04:15;7.68;;;2.70;;
3070;SDS011;1546;47.208;9.038;2023-02-01T11:06:45;8.45;;;2.97;;
3070;SDS011;1546;47.208;9.038;2023-02-01T11:09:16;5.75;;;2.40;;
3070;SDS011;1546;47.208;9.038;2023-02-01T11:11:55;5.65;;;2.22;;
3070;SDS011;1546;47.208;9.038;2023-02-01T11:14:26;7.43;;;3.28;;
3070;SDS011;1546;47.208;9.038;2023-02-01T11:17:00;8.40;;;3.92;;
3070;SDS011;1546;47.208;9.038;2023-02-01T11:19:38;5.30;;;2.40;;
3070;SDS011;1546;47.208;9.038;2023-02-01T11:22:10;6.18;;;2.85;;
3070;SDS011;1546;47.208;9.038;2023-02-01T11:24:38;7.30;;;3.00;;
3070;SDS011;1546;47.208;9.038;2023-02-01T11:27:13;5.97;;;2.80;;
3070;SDS011;1546;47.208;9.038;2023-02-01T11:29:43;6.85;;;3.05;;
3070;SDS011;1546;47.208;9.038;2023-02-01T11:32:13;8.15;;;3.15;;
3070;SDS011;1546;47.208;9.038;2023-02-01T11:34:43;7.00;;;2.65;;
3070;SDS011;1546;47.208;9.038;2023-02-01T11:37:14;4.88;;;2.33;;
3070;SDS011;1546;47.208;9.038;2023-02-01T11:39:44;4.82;;;2.05;;
3070;SDS011;1546;47.208;9.038;2023-02-01T11:42:21;6.55;;;2.75;;
3070;SDS011;1546;47.208;9.038;2023-02-01T11:44:48;5.95;;;2.97;;
3070;SDS011;1546;47.208;9.038;2023-02-01T11:47:25;5.97;;;3.20;;
3070;SDS011;1546;47.208;9.038;2023-02-01T11:49:54;6.82;;;3.05;;
3070;SDS011;1546;47.208;9.038;2023-02-01T11:52:26;5.40;;;2.25;;
3070;SDS011;1546;47.208;9.038;2023-02-01T11:55:15;7.07;;;2.47;;
3070;SDS011;1546;47.208;9.038;2023-02-01T11:57:57;7.50;;;3.08;;
3070;SDS011;1546;47.208;9.038;2023-02-01T12:00:39;10.05;;;3.55;;
3070;SDS011;1546;47.208;9.038;2023-02-01T12:03:30;7.57;;;2.70;;
3070;SDS011;1546;47.208;9.038;2023-02-01T12:06:16;6.57;;;3.00;;
3070;SDS011;1546;47.208;9.038;2023-02-01T12:08:58;7.97;;;3.20;;
3070;SDS011;1546;47.208;9.038;2023-02-01T12:11:51;10.30;;;3.47;;
3070;SDS011;1546;47.208;9.038;2023-02-01T12:14:32;6.70;;;2.90;;
3070;SDS011;1546;47.208;9.038;2023-02-01T12:17:11;8.80;;;3.90;;
3070;SDS011;1546;47.208;9.038;2023-02-01T12:20:05;7.82;;;3.63;;
3070;SDS011;1546;47.208;9.038;2023-02-01T12:22:46;8.38;;;3.20;;
3070;SDS011;1546;47.208;9.038;2023-02-01T12:25:25;8.05;;;4.03;;
3070;SDS011;1546;47.208;9.038;2023-02-01T12:31:10;9.55;;;3.75;;
3070;SDS011;1546;47.208;9.038;2023-02-01T12:33:57;7.30;;;3.60;;
3070;SDS011;1546;47.208;9.038;2023-02-01T12:36:36;6.50;;;3.05;;
3070;SDS011;1546;47.208;9.038;2023-02-01T12:39:11;9.25;;;3.40;;
3070;SDS011;1546;47.208;9.038;2023-02-01T12:41:48;8.35;;;3.40;;
3070;SDS011;1546;47.208;9.038;2023-02-01T12:44:27;7.90;;;3.50;;
3070;SDS011;1546;47.208;9.038;2023-02-01T12:47:03;8.68;;;3.65;;
3070;SDS011;1546;47.208;9.038;2023-02-01T12:49:36;7.18;;;3.22;;
3070;SDS011;1546;47.208;9.038;2023-02-01T12:52:12;6.35;;;3.17;;
3070;SDS011;1546;47.208;9.038;2023-02-01T12:54:41;5.32;;;2.60;;
3070;SDS011;1546;47.208;9.038;2023-02-01T12:57:14;5.75;;;3.13;;
3070;SDS011;1546;47.208;9.038;2023-02-01T12:59:44;5.80;;;2.90;;
3070;SDS011;1546;47.208;9.038;2023-02-01T13:02:19;6.50;;;3.05;;
3070;SDS011;1546;47.208;9.038;2023-02-01T13:04:55;4.93;;;2.60;;
3070;SDS011;1546;47.208;9.038;2023-02-01T13:07:29;9.68;;;3.70;;
3070;SDS011;1546;47.208;9.038;2023-02-01T13:10:01;9.70;;;4.32;;
3070;SDS011;1546;47.208;9.038;2023-02-01T13:12:32;6.43;;;3.70;;
3070;SDS011;1546;47.208;9.038;2023-02-01T13:15:03;8.25;;;3.90;;
3070;SDS011;1546;47.208;9.038;2023-02-01T13:17:40;7.68;;;3.60;;
3070;SDS011;1546;47.208;9.038;2023-02-01T13:20:13;5.47;;;3.17;;
3070;SDS011;1546;47.208;9.038;2023-02-01T13:22:46;7.88;;;3.40;;
3070;SDS011;1546;47.208;9.038;2023-02-01T13:25:17;5.63;;;2.85;;
3070;SDS011;1546;47.208;9.038;2023-02-01T13:27:52;7.38;;;3.28;;
3070;SDS011;1546;47.208;9.038;2023-02-01T13:30:21;7.90;;;3.45;;
3070;SDS011;1546;47.208;9.038;2023-02-01T13:33:06;8.63;;;4.97;;
3070;SDS011;1546;47.208;9.038;2023-02-01T13:35:55;6.90;;;3.15;;
3070;SDS011;1546;47.208;9.038;2023-02-01T13:41:35;5.28;;;2.70;;
3070;SDS011;1546;47.208;9.038;2023-02-01T13:44:16;21.50;;;6.03;;
3070;SDS011;1546;47.208;9.038;2023-02-01T13:46:49;6.28;;;2.92;;
3070;SDS011;1546;47.208;9.038;2023-02-01T13:49:22;12.27;;;2.70;;
3070;SDS011;1546;47.208;9.038;2023-02-01T13:51:52;4.70;;;2.15;;
3070;SDS011;1546;47.208;9.038;2023-02-01T13:54:25;5.30;;;2.10;;
3070;SDS011;1546;47.208;9.038;2023-02-01T13:56:55;6.85;;;2.95;;
3070;SDS011;1546;47.208;9.038;2023-02-01T13:59:45;5.85;;;2.70;;
3070;SDS011;1546;47.208;9.038;2023-02-01T14:08:23;5.63;;;2.90;;
3070;SDS011;1546;47.208;9.038;2023-02-01T14:11:03;4.88;;;2.05;;
3070;SDS011;1546;47.208;9.038;2023-02-01T14:13:31;4.68;;;2.10;;
3070;SDS011;1546;47.208;9.038;2023-02-01T14:16:10;5.45;;;2.38;;
3070;SDS011;1546;47.208;9.038;2023-02-01T14:21:34;5.07;;;2.35;;
3070;SDS011;1546;47.208;9.038;2023-02-01T14:24:16;7.93;;;2.15;;
3070;SDS011;1546;47.208;9.038;2023-02-01T14:26:49;4.97;;;2.85;;
3070;SDS011;1546;47.208;9.038;2023-02-01T14:29:25;5.05;;;2.38;;
3070;SDS011;1546;47.208;9.038;2023-02-01T14:32:00;5.15;;;2.70;;
3070;SDS011;1546;47.208;9.038;2023-02-01T14:34:33;5.60;;;2.05;;
3070;SDS011;1546;47.208;9.038;2023-02-01T14:37:09;4.78;;;1.90;;
3070;SDS011;1546;47.208;9.038;2023-02-01T14:39:48;5.82;;;2.50;;
3070;SDS011;1546;47.208;9.038;2023-02-01T14:42:21;4.80;;;2.30;;
3070;SDS011;1546;47.208;9.038;2023-02-01T14:44:51;5.32;;;2.67;;
3070;SDS011;1546;47.208;9.038;2023-02-01T14:47:29;6.25;;;2.17;;
3070;SDS011;1546;47.208;9.038;2023-02-01T14:50:13;4.50;;;1.90;;
3070;SDS011;1546;47.208;9.038;2023-02-01T14:55:58;10.68;;;5.50;;
3070;SDS011;1546;47.208;9.038;2023-02-01T14:58:34;4.57;;;1.95;;
3070;SDS011;1546;47.208;9.038;2023-02-01T15:01:12;5.30;;;2.15;;
3070;SDS011;1546;47.208;9.038;2023-02-01T15:03:45;30.88;;;17.08;;
3070;SDS011;1546;47.208;9.038;2023-02-01T15:09:04;31.25;;;15.38;;
3070;SDS011;1546;47.208;9.038;2023-02-01T15:14:29;7.45;;;3.60;;
3070;SDS011;1546;47.208;9.038;2023-02-01T15:16:56;9.70;;;3.90;;
3070;SDS011;1546;47.208;9.038;2023-02-01T15:19:24;6.03;;;2.80;;
3070;SDS011;1546;47.208;9.038;2023-02-01T15:21:53;4.78;;;2.55;;
3070;SDS011;1546;47.208;9.038;2023-02-01T15:24:21;6.00;;;2.40;;
3070;SDS011;1546;47.208;9.038;2023-02-01T15:26:50;3.83;;;1.90;;
3070;SDS011;1546;47.208;9.038;2023-02-01T15:29:18;5.70;;;2.15;;
3070;SDS011;1546;47.208;9.038;2023-02-01T15:31:47;7.45;;;3.47;;
3070;SDS011;1546;47.208;9.038;2023-02-01T15:34:15;5.45;;;2.50;;
3070;SDS011;1546;47.208;9.038;2023-02-01T15:36:43;4.85;;;2.05;;
3070;SDS011;1546;47.208;9.038;2023-02-01T15:39:12;6.50;;;2.45;;
3070;SDS011;1546;47.208;9.038;2023-02-01T15:41:52;4.07;;;1.80;;
3070;SDS011;1546;47.208;9.038;2023-02-01T15:44:30;5.47;;;2.40;;
3070;SDS011;1546;47.208;9.038;2023-02-01T15:46:59;4.82;;;1.80;;
3070;SDS011;1546;47.208;9.038;2023-02-01T15:49:32;6.65;;;2.47;;
3070;SDS011;1546;47.208;9.038;2023-02-01T15:52:03;4.90;;;1.90;;
3070;SDS011;1546;47.208;9.038;2023-02-01T15:54:40;4.35;;;2.30;;
3070;SDS011;1546;47.208;9.038;2023-02-01T15:57:09;4.95;;;1.92;;
3070;SDS011;1546;47.208;9.038;2023-02-01T15:59:40;3.50;;;1.58;;
3070;SDS011;1546;47.208;9.038;2023-02-01T16:02:24;4.10;;;1.20;;
3070;SDS011;1546;47.208;9.038;2023-02-01T16:04:52;3.85;;;2.08;;
3070;SDS011;1546;47.208;9.038;2023-02-01T16:07:25;4.30;;;1.55;;